createdAt,value
2022-09-02T00:01:48.384Z,2.70
2022-09-02T00:04:22.142Z,2.65
2022-09-02T00:06:53.341Z,2.67
2022-09-02T00:09:25.342Z,2.95
2022-09-02T00:11:57.306Z,2.78
2022-09-02T00:14:29.167Z,3.05
2022-09-02T00:17:01.170Z,2.88
2022-09-02T00:19:32.272Z,2.90
2022-09-02T00:22:02.968Z,3.00
2022-09-02T00:24:33.142Z,2.95
2022-09-02T00:27:04.275Z,3.15
2022-09-02T00:29:33.800Z,3.17
2022-09-02T00:32:03.458Z,3.13
2022-09-02T00:34:33.367Z,2.80
2022-09-02T00:37:02.756Z,2.85
2022-09-02T00:39:32.326Z,2.72
2022-09-02T00:42:03.246Z,2.92
2022-09-02T00:44:32.836Z,4.13
2022-09-02T00:47:02.286Z,2.70
2022-09-02T00:49:34.338Z,2.97
2022-09-02T00:52:07.204Z,3.30
2022-09-02T00:54:41.496Z,3.35
2022-09-02T00:57:19.791Z,3.20
2022-09-02T00:59:55.829Z,2.78
2022-09-02T01:02:26.381Z,2.45
2022-09-02T01:04:57.147Z,2.42
2022-09-02T01:07:28.044Z,2.70
2022-09-02T01:09:58.304Z,2.60
2022-09-02T01:12:32.164Z,2.40
2022-09-02T01:15:01.765Z,2.47
2022-09-02T01:17:35.125Z,2.88
2022-09-02T01:20:11.745Z,2.90
2022-09-02T01:22:43.749Z,2.80
2022-09-02T01:25:16.742Z,2.45
2022-09-02T01:27:47.501Z,2.70
2022-09-02T01:30:27.440Z,2.65
2022-09-02T01:32:57.460Z,2.90
2022-09-02T01:35:27.161Z,2.75
2022-09-02T01:37:59.841Z,2.70
2022-09-02T01:40:32.006Z,2.42
2022-09-02T01:43:08.540Z,2.85
2022-09-02T01:45:38.561Z,3.05
2022-09-02T01:48:09.364Z,2.92
2022-09-02T01:50:46.830Z,2.85
2022-09-02T01:53:18.887Z,3.05
2022-09-02T01:55:48.722Z,3.38
2022-09-02T01:58:18.140Z,3.17
2022-09-02T02:00:48.462Z,3.53
2022-09-02T02:03:18.379Z,3.53
2022-09-02T02:05:47.872Z,3.15
2022-09-02T02:08:21.080Z,2.83
2022-09-02T02:10:51.190Z,2.80
2022-09-02T02:13:20.949Z,3.20
2022-09-02T02:15:50.576Z,3.22
2022-09-02T02:18:19.990Z,3.30
2022-09-02T02:20:50.200Z,2.90
2022-09-02T02:23:21.260Z,4.20
2022-09-02T02:25:50.830Z,3.60
2022-09-02T02:28:20.280Z,3.08
2022-09-02T02:30:50.804Z,3.38
2022-09-02T02:33:20.458Z,2.90
2022-09-02T02:35:50.851Z,2.90
2022-09-02T02:38:21.950Z,2.72
2022-09-02T02:40:56.169Z,2.80
2022-09-02T02:43:27.302Z,2.92
2022-09-02T02:45:57.013Z,2.88
2022-09-02T02:48:26.824Z,2.97
2022-09-02T02:50:56.871Z,2.83
2022-09-02T02:53:30.002Z,2.42
2022-09-02T02:56:00.791Z,2.50
2022-09-02T02:58:30.568Z,2.58
2022-09-02T03:01:00.490Z,2.55
2022-09-02T03:03:31.516Z,2.90
2022-09-02T03:06:01.446Z,3.00
2022-09-02T03:08:35.657Z,3.10
2022-09-02T03:11:06.054Z,2.70
2022-09-02T03:13:39.062Z,2.75
2022-09-02T03:16:08.787Z,2.67
2022-09-02T03:18:38.296Z,2.67
2022-09-02T03:21:09.995Z,2.90
2022-09-02T03:23:41.076Z,2.60
2022-09-02T03:26:12.901Z,2.90
2022-09-02T03:28:44.174Z,2.65
2022-09-02T03:31:18.953Z,2.80
2022-09-02T03:36:28.160Z,2.80
2022-09-02T03:38:59.303Z,2.95
2022-09-02T03:41:31.390Z,2.80
2022-09-02T03:44:02.396Z,2.63
2022-09-02T03:46:32.629Z,3.03
2022-09-02T03:49:03.058Z,2.83
2022-09-02T03:51:34.736Z,2.70
2022-09-02T03:54:04.777Z,3.15
2022-09-02T03:56:34.288Z,2.97
2022-09-02T03:59:05.643Z,3.10
2022-09-02T04:01:35.344Z,2.90
2022-09-02T04:04:07.880Z,2.80
2022-09-02T04:06:41.612Z,3.00
2022-09-02T04:09:11.239Z,2.58
2022-09-02T04:11:43.899Z,3.15
2022-09-02T04:14:15.240Z,2.88
2022-09-02T04:16:45.149Z,2.60
2022-09-02T04:19:16.319Z,3.00
2022-09-02T04:21:47.599Z,2.83
2022-09-02T04:24:17.266Z,2.88
2022-09-02T04:26:49.949Z,2.63
2022-09-02T04:29:20.658Z,2.72
2022-09-02T04:31:52.957Z,2.67
2022-09-02T04:34:23.922Z,2.65
2022-09-02T04:36:55.849Z,2.50
2022-09-02T04:39:26.035Z,2.35
2022-09-02T04:41:55.925Z,2.38
2022-09-02T04:44:27.883Z,2.60
2022-09-02T04:46:57.381Z,2.45
2022-09-02T04:49:27.676Z,2.63
2022-09-02T04:51:58.865Z,2.47
2022-09-02T04:54:29.439Z,2.80
2022-09-02T04:57:02.593Z,2.42
2022-09-02T04:59:32.572Z,2.78
2022-09-02T05:02:08.908Z,3.08
2022-09-02T05:04:38.715Z,3.03
2022-09-02T05:07:16.426Z,3.00
2022-09-02T05:09:48.573Z,3.10
2022-09-02T05:12:20.334Z,2.90
2022-09-02T05:14:57.495Z,2.78
2022-09-02T05:17:27.273Z,2.90
2022-09-02T05:19:57.593Z,2.92
2022-09-02T05:22:29.874Z,2.78
2022-09-02T05:25:02.134Z,3.10
2022-09-02T05:27:33.794Z,2.70
2022-09-02T05:30:04.703Z,2.55
2022-09-02T05:32:37.919Z,2.92
2022-09-02T05:35:09.812Z,2.75
2022-09-02T05:37:41.472Z,2.50
2022-09-02T05:40:14.787Z,2.65
2022-09-02T05:42:47.049Z,2.53
2022-09-02T05:45:19.357Z,2.65
2022-09-02T05:47:50.083Z,2.55
2022-09-02T05:50:20.940Z,2.20
2022-09-02T05:52:53.902Z,2.30
2022-09-02T05:55:25.373Z,2.80
2022-09-02T05:57:55.086Z,2.28
2022-09-02T06:00:25.776Z,2.15
2022-09-02T06:03:01.810Z,2.20
2022-09-02T06:05:38.717Z,2.45
2022-09-02T06:08:20.745Z,2.42
2022-09-02T06:10:50.556Z,2.50
2022-09-02T06:13:24.359Z,2.58
2022-09-02T06:15:56.710Z,2.85
2022-09-02T06:18:29.344Z,2.67
2022-09-02T06:21:00.418Z,2.70
2022-09-02T06:23:39.766Z,2.58
2022-09-02T06:26:14.215Z,2.78
2022-09-02T06:28:44.256Z,2.45
2022-09-02T06:31:15.868Z,2.42
2022-09-02T06:33:47.096Z,2.60
2022-09-02T06:36:20.697Z,2.30
2022-09-02T06:38:55.196Z,2.42
2022-09-02T06:41:28.728Z,2.45
2022-09-02T06:44:02.226Z,2.83
2022-09-02T06:46:34.187Z,2.60
2022-09-02T06:49:06.269Z,2.83
2022-09-02T06:51:39.266Z,2.50
2022-09-02T06:54:14.178Z,2.47
2022-09-02T06:56:49.185Z,2.70
2022-09-02T06:59:23.044Z,2.45
2022-09-02T07:01:59.629Z,2.72
2022-09-02T07:04:47.686Z,2.78
2022-09-02T07:07:21.918Z,2.40
2022-09-02T07:09:57.129Z,2.42
2022-09-02T07:12:27.650Z,2.80
2022-09-02T07:15:02.405Z,2.50
2022-09-02T07:17:39.790Z,2.50
2022-09-02T07:20:14.561Z,2.60
2022-09-02T07:22:52.652Z,2.30
2022-09-02T07:25:27.968Z,2.33
2022-09-02T07:27:57.773Z,2.17
2022-09-02T07:30:28.395Z,2.53
2022-09-02T07:33:05.618Z,2.38
2022-09-02T07:35:37.377Z,2.42
2022-09-02T07:38:10.510Z,2.40
2022-09-02T07:40:44.160Z,2.35
2022-09-02T07:43:14.356Z,2.63
2022-09-02T07:45:45.207Z,2.85
2022-09-02T07:48:16.278Z,2.67
2022-09-02T07:50:47.925Z,2.78
2022-09-02T07:53:20.855Z,2.30
2022-09-02T07:55:53.197Z,2.65
2022-09-02T07:58:24.109Z,2.85
2022-09-02T08:00:56.461Z,3.10
2022-09-02T08:03:28.335Z,3.05
2022-09-02T08:06:01.185Z,2.40
2022-09-02T08:08:31.142Z,2.25
2022-09-02T08:13:38.574Z,2.08
2022-09-02T08:16:08.698Z,2.63
2022-09-02T08:18:39.085Z,2.40
2022-09-02T08:21:08.805Z,2.33
2022-09-02T08:23:38.925Z,2.95
2022-09-02T08:26:11.615Z,2.47
2022-09-02T08:28:41.273Z,2.42
2022-09-02T08:31:11.184Z,2.40
2022-09-02T08:33:41.204Z,2.50
2022-09-02T08:36:14.961Z,2.20
2022-09-02T08:38:45.046Z,2.50
2022-09-02T08:41:23.402Z,2.58
2022-09-02T08:43:54.645Z,2.85
2022-09-02T08:46:27.393Z,2.53
2022-09-02T08:49:00.617Z,2.40
2022-09-02T08:51:37.320Z,2.40
2022-09-02T08:54:10.290Z,2.60
2022-09-02T08:56:42.095Z,2.40
2022-09-02T08:59:13.419Z,2.63
2022-09-02T09:01:50.457Z,2.42
2022-09-02T09:04:39.313Z,2.40
2022-09-02T09:07:24.209Z,2.80
2022-09-02T09:10:10.186Z,2.13
2022-09-02T09:13:09.958Z,2.60
2022-09-02T09:15:48.014Z,2.38
2022-09-02T09:18:21.585Z,2.30
2022-09-02T09:20:51.216Z,2.35
2022-09-02T09:23:34.427Z,2.00
2022-09-02T09:26:10.222Z,2.33
2022-09-02T09:28:47.635Z,2.25
2022-09-02T09:31:19.397Z,2.10
2022-09-02T09:34:00.853Z,2.00
2022-09-02T09:36:49.797Z,2.15
2022-09-02T09:39:25.798Z,2.20
2022-09-02T09:41:57.160Z,2.20
2022-09-02T09:44:49.643Z,2.25
2022-09-02T09:47:21.101Z,2.03
2022-09-02T09:49:52.279Z,2.15
2022-09-02T09:52:26.974Z,1.67
2022-09-02T09:55:13.268Z,2.00
2022-09-02T09:57:45.831Z,8.13
2022-09-02T10:00:32.438Z,2.80
2022-09-02T10:03:04.340Z,2.03
2022-09-02T10:05:37.174Z,2.00
2022-09-02T10:08:15.123Z,1.90
2022-09-02T10:11:01.825Z,1.67
2022-09-02T10:13:33.569Z,1.90
2022-09-02T10:16:33.926Z,2.20
2022-09-02T10:19:12.613Z,2.00
2022-09-02T10:22:10.764Z,2.22
2022-09-02T10:24:54.295Z,2.00
2022-09-02T10:27:32.581Z,1.50
2022-09-02T10:30:08.681Z,1.95
2022-09-02T10:33:17.305Z,2.10
2022-09-02T10:35:48.918Z,1.67
2022-09-02T10:38:37.613Z,2.10
2022-09-02T10:41:18.398Z,2.28
2022-09-02T10:44:02.374Z,1.80
2022-09-02T10:46:41.424Z,2.20
2022-09-02T10:49:21.351Z,2.15
2022-09-02T10:51:59.155Z,1.60
2022-09-02T10:54:43.247Z,1.95
2022-09-02T10:57:17.525Z,1.80
2022-09-02T10:59:52.696Z,1.80
2022-09-02T11:02:27.252Z,1.83
2022-09-02T11:05:04.308Z,2.00
2022-09-02T11:07:39.546Z,2.13
2022-09-02T11:10:13.105Z,1.85
2022-09-02T11:12:50.024Z,1.80
2022-09-02T11:15:23.773Z,1.60
2022-09-02T11:18:00.945Z,2.10
2022-09-02T11:20:37.047Z,1.80
2022-09-02T11:23:18.393Z,1.90
2022-09-02T11:25:56.080Z,1.80
2022-09-02T11:28:34.898Z,1.85
2022-09-02T11:31:12.406Z,1.90
2022-09-02T11:33:51.242Z,1.90
2022-09-02T11:36:22.638Z,1.95
2022-09-02T11:39:01.042Z,1.95
2022-09-02T11:41:41.783Z,1.73
2022-09-02T11:44:32.317Z,1.75
2022-09-02T11:47:25.560Z,2.13
2022-09-02T11:50:34.687Z,1.98
2022-09-02T11:53:20.867Z,2.08
2022-09-02T11:55:54.304Z,2.03
2022-09-02T11:58:38.275Z,1.90
2022-09-02T12:01:33.266Z,1.88
2022-09-02T12:04:55.949Z,1.98
2022-09-02T12:07:33.983Z,1.90
2022-09-02T12:10:06.572Z,2.22
2022-09-02T12:13:08.397Z,1.77
2022-09-02T12:15:41.028Z,1.90
2022-09-02T12:18:16.128Z,1.80
2022-09-02T12:21:08.300Z,1.70
2022-09-02T12:24:20.907Z,2.30
2022-09-02T12:27:13.197Z,2.15
2022-09-02T12:29:45.959Z,2.03
2022-09-02T12:33:05.773Z,2.20
2022-09-02T12:35:51.937Z,11.75
2022-09-02T12:38:28.302Z,20.02
2022-09-02T12:41:13.628Z,4.95
2022-09-02T12:44:03.040Z,2.53
2022-09-02T12:46:49.585Z,2.70
2022-09-02T12:49:35.505Z,2.30
2022-09-02T12:52:07.460Z,2.13
2022-09-02T12:54:49.497Z,1.98
2022-09-02T12:57:20.467Z,2.00
2022-09-02T13:00:00.440Z,2.33
2022-09-02T13:02:45.109Z,1.90
2022-09-02T13:05:29.777Z,2.00
2022-09-02T13:08:31.430Z,1.80
2022-09-02T13:11:42.889Z,2.20
2022-09-02T13:14:39.648Z,1.90
2022-09-02T13:17:39.664Z,2.00
2022-09-02T13:21:01.780Z,1.85
2022-09-02T13:24:03.722Z,2.10
2022-09-02T13:27:00.304Z,1.88
2022-09-02T13:30:18.429Z,1.98
2022-09-02T13:32:59.069Z,1.98
2022-09-02T13:35:30.045Z,1.92
2022-09-02T13:38:01.894Z,1.98
2022-09-02T13:40:33.950Z,1.65
2022-09-02T13:43:04.508Z,1.73
2022-09-02T13:45:36.895Z,1.80
2022-09-02T13:48:12.515Z,2.05
2022-09-02T13:50:46.657Z,2.15
2022-09-02T13:53:59.117Z,1.92
2022-09-02T13:56:18.965Z,1.90
2022-09-02T13:58:53.699Z,1.80
2022-09-02T14:01:28.925Z,1.73
2022-09-02T14:04:02.029Z,1.80
2022-09-02T14:06:36.950Z,1.92
2022-09-02T14:09:10.720Z,2.15
2022-09-02T14:11:44.429Z,2.10
2022-09-02T14:14:16.230Z,2.08
2022-09-02T14:16:46.019Z,1.95
2022-09-02T14:19:27.300Z,2.08
2022-09-02T14:21:58.630Z,2.08
2022-09-02T14:24:29.769Z,2.03
2022-09-02T14:27:01.463Z,1.77
2022-09-02T14:29:32.841Z,1.90
2022-09-02T14:32:14.151Z,1.83
2022-09-02T14:34:47.127Z,1.90
2022-09-02T14:37:24.801Z,1.60
2022-09-02T14:39:56.299Z,2.10
2022-09-02T14:42:29.189Z,2.40
2022-09-02T14:45:00.119Z,2.10
2022-09-02T14:47:29.696Z,1.83
2022-09-02T14:50:00.705Z,1.75
2022-09-02T14:52:33.692Z,1.90
2022-09-02T14:55:03.404Z,1.90
2022-09-02T14:57:35.808Z,2.00
2022-09-02T15:00:10.946Z,1.90
2022-09-02T15:02:42.967Z,1.70
2022-09-02T15:05:15.870Z,1.77
2022-09-02T15:07:46.343Z,2.00
2022-09-02T15:10:15.971Z,1.80
2022-09-02T15:12:51.011Z,1.90
2022-09-02T15:15:21.010Z,2.08
2022-09-02T15:17:50.702Z,1.90
2022-09-02T15:20:22.068Z,1.80
2022-09-02T15:22:53.520Z,1.75
2022-09-02T15:25:23.008Z,1.73
2022-09-02T15:27:52.536Z,1.90
2022-09-02T15:30:22.160Z,1.98
2022-09-02T15:32:52.202Z,1.90
2022-09-02T15:35:23.202Z,2.20
2022-09-02T15:37:52.703Z,1.83
2022-09-02T15:40:22.100Z,2.13
2022-09-02T15:42:51.600Z,3.75
2022-09-02T15:45:21.030Z,2.05
2022-09-02T15:47:50.589Z,2.05
2022-09-02T15:50:21.911Z,2.08
2022-09-02T15:52:52.206Z,2.00
2022-09-02T15:55:25.002Z,1.73
2022-09-02T15:57:59.122Z,2.10
2022-09-02T16:00:28.919Z,1.80
2022-09-02T16:03:01.677Z,2.00
2022-09-02T16:05:32.721Z,1.85
2022-09-02T16:08:02.384Z,2.05
2022-09-02T16:10:31.765Z,1.80
2022-09-02T16:13:02.588Z,2.25
2022-09-02T16:15:34.388Z,2.28
2022-09-02T16:18:04.179Z,2.70
2022-09-02T16:20:35.029Z,2.50
2022-09-02T16:23:04.479Z,2.17
2022-09-02T16:25:33.828Z,2.05
2022-09-02T16:28:03.449Z,2.85
2022-09-02T16:30:32.889Z,2.13
2022-09-02T16:33:02.589Z,2.30
2022-09-02T16:35:34.725Z,2.13
2022-09-02T16:38:04.282Z,2.05
2022-09-02T16:40:36.052Z,2.42
2022-09-02T16:43:05.605Z,2.40
2022-09-02T16:45:36.103Z,2.10
2022-09-02T16:48:06.010Z,2.88
2022-09-02T16:50:36.847Z,2.95
2022-09-02T16:53:06.385Z,3.00
2022-09-02T16:55:38.335Z,3.03
2022-09-02T16:58:10.630Z,2.72
2022-09-02T17:00:40.838Z,3.80
2022-09-02T17:03:12.268Z,3.67
2022-09-02T17:05:44.648Z,3.10
2022-09-02T17:08:14.178Z,2.50
2022-09-02T17:10:44.012Z,2.70
2022-09-02T17:13:13.559Z,2.25
2022-09-02T17:15:42.972Z,2.63
2022-09-02T17:18:12.481Z,2.63
2022-09-02T17:20:43.401Z,2.50
2022-09-02T17:23:15.103Z,2.47
2022-09-02T17:25:47.690Z,2.50
2022-09-02T17:28:17.168Z,2.53
2022-09-02T17:30:46.573Z,2.60
2022-09-02T17:33:16.128Z,2.60
2022-09-02T17:35:57.149Z,2.50
2022-09-02T17:38:27.347Z,2.70
2022-09-02T17:41:14.074Z,2.30
2022-09-02T17:43:43.674Z,2.70
2022-09-02T17:46:13.112Z,3.67
2022-09-02T17:48:59.667Z,3.22
2022-09-02T17:51:33.989Z,2.50
2022-09-02T17:54:03.606Z,2.80
2022-09-02T17:57:01.499Z,3.05
2022-09-02T17:59:38.804Z,2.85
2022-09-02T18:02:45.398Z,3.08
2022-09-02T18:05:22.579Z,3.25
2022-09-02T18:08:11.224Z,2.88
2022-09-02T18:10:43.855Z,2.72
2022-09-02T18:13:14.987Z,2.67
2022-09-02T18:16:04.096Z,2.63
2022-09-02T18:18:34.483Z,2.70
2022-09-02T18:21:11.167Z,2.90
2022-09-02T18:24:02.454Z,2.95
2022-09-02T18:26:45.158Z,2.85
2022-09-02T18:29:25.587Z,2.63
2022-09-02T18:32:02.724Z,2.75
2022-09-02T18:34:44.817Z,2.47
2022-09-02T18:37:27.552Z,3.30
2022-09-02T18:40:13.584Z,3.28
2022-09-02T18:42:50.665Z,3.40
2022-09-02T18:45:25.429Z,3.20
2022-09-02T18:48:00.185Z,3.20
2022-09-02T18:53:26.271Z,2.90
2022-09-02T18:55:57.913Z,2.80
2022-09-02T18:58:38.103Z,3.13
2022-09-02T19:01:12.549Z,3.00
2022-09-02T19:03:42.181Z,3.30
2022-09-02T19:06:19.312Z,2.97
2022-09-02T19:08:50.533Z,3.10
2022-09-02T19:11:22.118Z,3.40
2022-09-02T19:13:53.250Z,3.05
2022-09-02T19:16:25.124Z,2.85
2022-09-02T19:18:55.155Z,2.80
2022-09-02T19:21:32.873Z,3.65
2022-09-02T19:24:03.885Z,4.05
2022-09-02T19:26:35.280Z,4.30
2022-09-02T19:29:05.322Z,4.13
2022-09-02T19:31:34.879Z,3.63
2022-09-02T19:34:05.583Z,4.20
2022-09-02T19:36:36.809Z,4.13
2022-09-02T19:39:06.383Z,4.38
2022-09-02T19:41:37.640Z,4.38
2022-09-02T19:44:08.299Z,4.63
2022-09-02T19:47:24.791Z,4.68
2022-09-02T19:49:27.461Z,4.25
2022-09-02T19:51:56.914Z,4.45
2022-09-02T19:54:26.994Z,4.18
2022-09-02T19:56:57.934Z,4.32
2022-09-02T19:59:27.560Z,4.13
2022-09-02T20:01:58.459Z,3.53
2022-09-02T20:04:30.140Z,3.60
2022-09-02T20:07:00.724Z,3.30
2022-09-02T20:09:30.393Z,3.25
2022-09-02T20:12:02.942Z,3.88
2022-09-02T20:14:32.514Z,3.35
2022-09-02T20:17:05.387Z,3.33
2022-09-02T20:19:35.188Z,3.65
2022-09-02T20:22:06.467Z,3.67
2022-09-02T20:24:36.938Z,3.72
2022-09-02T20:27:14.287Z,3.38
2022-09-02T20:30:03.463Z,3.17
2022-09-02T20:32:44.168Z,3.65
2022-09-02T20:35:38.139Z,3.40
2022-09-02T20:38:26.548Z,3.35
2022-09-02T20:41:05.392Z,3.40
2022-09-02T20:43:56.816Z,3.30
2022-09-02T20:46:42.153Z,3.53
2022-09-02T20:49:32.960Z,3.42
2022-09-02T20:52:09.125Z,3.28
2022-09-02T20:54:45.374Z,3.35
2022-09-02T20:57:31.289Z,3.25
2022-09-02T21:00:09.562Z,2.90
2022-09-02T21:02:43.843Z,3.40
2022-09-02T21:05:22.248Z,3.10
2022-09-02T21:08:01.736Z,3.22
2022-09-02T21:10:36.125Z,3.65
2022-09-02T21:13:12.284Z,3.90
2022-09-02T21:15:48.755Z,3.85
2022-09-02T21:18:28.080Z,3.65
2022-09-02T21:21:05.370Z,3.80
2022-09-02T21:23:40.060Z,3.63
2022-09-02T21:26:15.838Z,3.20
2022-09-02T21:28:51.892Z,3.15
2022-09-02T21:31:29.052Z,3.20
2022-09-02T21:34:06.074Z,3.50
2022-09-02T21:36:38.324Z,3.60
2022-09-02T21:39:12.704Z,3.65
2022-09-02T21:41:48.754Z,3.70
2022-09-02T21:44:25.245Z,3.42
2022-09-02T21:47:04.255Z,3.75
2022-09-02T21:49:49.797Z,3.58
2022-09-02T21:52:27.783Z,3.65
2022-09-02T21:55:05.025Z,3.30
2022-09-02T21:57:47.745Z,3.40
2022-09-02T22:00:19.604Z,3.85
2022-09-02T22:02:59.325Z,3.50
2022-09-02T22:05:47.956Z,3.70
2022-09-02T22:08:25.907Z,4.05
2022-09-02T22:11:06.356Z,3.85
2022-09-02T22:13:38.064Z,3.78
2022-09-02T22:16:18.381Z,3.80
2022-09-02T22:18:52.635Z,4.05
2022-09-02T22:21:30.853Z,3.70
2022-09-02T22:24:01.033Z,3.70
2022-09-02T22:26:44.311Z,3.30
2022-09-02T22:29:19.091Z,3.78
2022-09-02T22:31:54.436Z,3.33
2022-09-02T22:34:26.951Z,3.78
2022-09-02T22:37:05.395Z,3.67
2022-09-02T22:39:39.324Z,3.38
2022-09-02T22:42:20.433Z,3.40
2022-09-02T22:45:12.809Z,3.20
2022-09-02T22:48:05.568Z,3.45
2022-09-02T22:51:00.376Z,3.60
2022-09-02T22:53:31.293Z,4.25
2022-09-02T22:56:04.142Z,3.92
2022-09-02T22:58:56.332Z,4.15
2022-09-02T23:01:36.164Z,4.15
2022-09-02T23:04:18.605Z,4.18
2022-09-02T23:06:49.709Z,4.32
2022-09-02T23:09:19.299Z,4.57
2022-09-02T23:11:57.513Z,4.90
2022-09-02T23:14:35.894Z,4.57
2022-09-02T23:17:23.994Z,3.85
2022-09-02T23:20:12.286Z,4.55
2022-09-02T23:22:59.649Z,4.90
2022-09-02T23:25:55.065Z,4.65
2022-09-02T23:28:32.739Z,4.95
2022-09-02T23:31:09.919Z,4.85
2022-09-02T23:33:57.740Z,3.75
2022-09-02T23:36:40.578Z,3.83
2022-09-02T23:39:32.107Z,4.13
2022-09-02T23:42:02.794Z,4.30
2022-09-02T23:44:32.968Z,3.90
2022-09-02T23:47:15.421Z,3.92
2022-09-02T23:49:51.929Z,3.95
2022-09-02T23:52:28.003Z,4.05
2022-09-02T23:55:13.821Z,3.55
2022-09-02T23:58:01.762Z,3.60
